sensor_id;sensor_type;location;lat;lon;timestamp;P1;durP1;ratioP1;P2;durP2;ratioP2
52136;SDS011;38130;49.012;8.368;2022-07-29T00:00:50;8.98;;;7.22;;
52136;SDS011;38130;49.012;8.368;2022-07-29T00:03:17;6.93;;;5.70;;
52136;SDS011;38130;49.012;8.368;2022-07-29T00:05:43;9.88;;;7.18;;
52136;SDS011;38130;49.012;8.368;2022-07-29T00:08:10;15.40;;;12.93;;
52136;SDS011;38130;49.012;8.368;2022-07-29T00:10:38;5.40;;;4.70;;
52136;SDS011;38130;49.012;8.368;2022-07-29T00:13:04;6.90;;;5.13;;
52136;SDS011;38130;49.012;8.368;2022-07-29T00:15:31;9.82;;;8.15;;
52136;SDS011;38130;49.012;8.368;2022-07-29T00:17:57;25.40;;;17.70;;
52136;SDS011;38130;49.012;8.368;2022-07-29T00:20:24;8.57;;;4.35;;
52136;SDS011;38130;49.012;8.368;2022-07-29T00:22:50;11.10;;;8.32;;
52136;SDS011;38130;49.012;8.368;2022-07-29T00:25:17;17.48;;;13.27;;
52136;SDS011;38130;49.012;8.368;2022-07-29T00:27:43;13.00;;;9.63;;
52136;SDS011;38130;49.012;8.368;2022-07-29T00:30:11;7.22;;;4.53;;
52136;SDS011;38130;49.012;8.368;2022-07-29T00:32:38;8.00;;;5.07;;
52136;SDS011;38130;49.012;8.368;2022-07-29T00:35:05;6.40;;;5.10;;
52136;SDS011;38130;49.012;8.368;2022-07-29T00:37:51;5.50;;;4.28;;
52136;SDS011;38130;49.012;8.368;2022-07-29T00:40:17;5.40;;;4.22;;
52136;SDS011;38130;49.012;8.368;2022-07-29T00:42:49;7.30;;;5.35;;
52136;SDS011;38130;49.012;8.368;2022-07-29T00:45:19;7.25;;;5.57;;
52136;SDS011;38130;49.012;8.368;2022-07-29T00:47:46;12.25;;;5.97;;
52136;SDS011;38130;49.012;8.368;2022-07-29T00:50:12;9.55;;;5.53;;
52136;SDS011;38130;49.012;8.368;2022-07-29T00:52:40;11.23;;;7.55;;
52136;SDS011;38130;49.012;8.368;2022-07-29T00:55:08;13.65;;;7.15;;
52136;SDS011;38130;49.012;8.368;2022-07-29T00:57:37;10.68;;;6.68;;
52136;SDS011;38130;49.012;8.368;2022-07-29T01:00:05;6.72;;;6.03;;
52136;SDS011;38130;49.012;8.368;2022-07-29T01:02:32;8.48;;;5.53;;
52136;SDS011;38130;49.012;8.368;2022-07-29T01:05:00;8.68;;;5.70;;
52136;SDS011;38130;49.012;8.368;2022-07-29T01:07:27;6.43;;;5.28;;
52136;SDS011;38130;49.012;8.368;2022-07-29T01:09:56;6.47;;;5.50;;
52136;SDS011;38130;49.012;8.368;2022-07-29T01:12:24;7.03;;;5.72;;
52136;SDS011;38130;49.012;8.368;2022-07-29T01:14:53;5.50;;;4.32;;
52136;SDS011;38130;49.012;8.368;2022-07-29T01:17:24;6.18;;;4.75;;
52136;SDS011;38130;49.012;8.368;2022-07-29T01:19:59;5.47;;;4.35;;
52136;SDS011;38130;49.012;8.368;2022-07-29T01:22:28;10.02;;;5.22;;
52136;SDS011;38130;49.012;8.368;2022-07-29T01:31:04;6.72;;;5.10;;
52136;SDS011;38130;49.012;8.368;2022-07-29T01:33:43;7.38;;;4.90;;
52136;SDS011;38130;49.012;8.368;2022-07-29T01:36:17;7.43;;;4.53;;
52136;SDS011;38130;49.012;8.368;2022-07-29T01:38:54;7.88;;;4.95;;
52136;SDS011;38130;49.012;8.368;2022-07-29T01:41:25;7.00;;;4.97;;
52136;SDS011;38130;49.012;8.368;2022-07-29T01:44:02;7.38;;;5.25;;
52136;SDS011;38130;49.012;8.368;2022-07-29T01:46:38;7.60;;;5.00;;
52136;SDS011;38130;49.012;8.368;2022-07-29T01:49:11;6.05;;;5.22;;
52136;SDS011;38130;49.012;8.368;2022-07-29T01:51:46;7.30;;;5.30;;
52136;SDS011;38130;49.012;8.368;2022-07-29T01:56:53;6.53;;;4.60;;
52136;SDS011;38130;49.012;8.368;2022-07-29T01:59:22;5.57;;;5.07;;
52136;SDS011;38130;49.012;8.368;2022-07-29T02:01:53;5.43;;;4.93;;
52136;SDS011;38130;49.012;8.368;2022-07-29T02:04:21;5.22;;;4.70;;
52136;SDS011;38130;49.012;8.368;2022-07-29T02:06:57;6.03;;;4.85;;
52136;SDS011;38130;49.012;8.368;2022-07-29T02:09:28;6.22;;;5.00;;
52136;SDS011;38130;49.012;8.368;2022-07-29T02:11:57;5.32;;;4.82;;
52136;SDS011;38130;49.012;8.368;2022-07-29T02:14:28;8.23;;;5.30;;
52136;SDS011;38130;49.012;8.368;2022-07-29T02:16:59;7.80;;;5.07;;
52136;SDS011;38130;49.012;8.368;2022-07-29T02:19:26;6.45;;;4.75;;
52136;SDS011;38130;49.012;8.368;2022-07-29T02:21:55;5.15;;;4.65;;
52136;SDS011;38130;49.012;8.368;2022-07-29T02:24:24;5.40;;;4.90;;
52136;SDS011;38130;49.012;8.368;2022-07-29T02:26:52;5.07;;;4.68;;
52136;SDS011;38130;49.012;8.368;2022-07-29T02:29:21;5.72;;;5.13;;
52136;SDS011;38130;49.012;8.368;2022-07-29T02:31:50;8.95;;;5.43;;
52136;SDS011;38130;49.012;8.368;2022-07-29T02:34:18;9.75;;;5.10;;
52136;SDS011;38130;49.012;8.368;2022-07-29T02:36:47;5.43;;;5.00;;
52136;SDS011;38130;49.012;8.368;2022-07-29T02:39:15;7.15;;;5.00;;
52136;SDS011;38130;49.012;8.368;2022-07-29T02:41:47;7.03;;;5.32;;
52136;SDS011;38130;49.012;8.368;2022-07-29T02:44:17;7.70;;;5.55;;
52136;SDS011;38130;49.012;8.368;2022-07-29T02:46:53;5.80;;;5.25;;
52136;SDS011;38130;49.012;8.368;2022-07-29T02:52:38;5.30;;;4.80;;
52136;SDS011;38130;49.012;8.368;2022-07-29T03:00:58;7.50;;;5.57;;
52136;SDS011;38130;49.012;8.368;2022-07-29T03:03:32;8.20;;;5.28;;
52136;SDS011;38130;49.012;8.368;2022-07-29T03:06:02;7.88;;;5.47;;
52136;SDS011;38130;49.012;8.368;2022-07-29T03:08:30;5.97;;;5.38;;
52136;SDS011;38130;49.012;8.368;2022-07-29T03:10:58;6.15;;;5.55;;
52136;SDS011;38130;49.012;8.368;2022-07-29T03:13:27;8.43;;;5.22;;
52136;SDS011;38130;49.012;8.368;2022-07-29T03:15:55;7.32;;;5.50;;
52136;SDS011;38130;49.012;8.368;2022-07-29T03:18:24;6.50;;;5.30;;
52136;SDS011;38130;49.012;8.368;2022-07-29T03:20:51;7.63;;;5.47;;
52136;SDS011;38130;49.012;8.368;2022-07-29T03:23:19;6.68;;;4.70;;
52136;SDS011;38130;49.012;8.368;2022-07-29T03:25:52;7.40;;;5.22;;
52136;SDS011;38130;49.012;8.368;2022-07-29T03:28:19;6.68;;;5.82;;
52136;SDS011;38130;49.012;8.368;2022-07-29T03:30:47;6.03;;;5.20;;
52136;SDS011;38130;49.012;8.368;2022-07-29T03:33:14;19.40;;;14.02;;
52136;SDS011;38130;49.012;8.368;2022-07-29T03:35:40;6.93;;;5.47;;
52136;SDS011;38130;49.012;8.368;2022-07-29T03:38:07;11.27;;;7.18;;
52136;SDS011;38130;49.012;8.368;2022-07-29T03:40:41;10.00;;;5.85;;
52136;SDS011;38130;49.012;8.368;2022-07-29T03:43:13;8.57;;;5.97;;
52136;SDS011;38130;49.012;8.368;2022-07-29T03:45:42;8.75;;;5.32;;
52136;SDS011;38130;49.012;8.368;2022-07-29T03:48:12;6.38;;;5.35;;
52136;SDS011;38130;49.012;8.368;2022-07-29T03:50:41;8.07;;;5.85;;
52136;SDS011;38130;49.012;8.368;2022-07-29T03:53:08;7.85;;;6.03;;
52136;SDS011;38130;49.012;8.368;2022-07-29T03:55:41;9.50;;;5.97;;
52136;SDS011;38130;49.012;8.368;2022-07-29T03:58:10;8.95;;;6.30;;
52136;SDS011;38130;49.012;8.368;2022-07-29T04:00:39;7.82;;;6.05;;
52136;SDS011;38130;49.012;8.368;2022-07-29T04:03:06;6.55;;;5.32;;
52136;SDS011;38130;49.012;8.368;2022-07-29T04:05:37;8.88;;;5.43;;
52136;SDS011;38130;49.012;8.368;2022-07-29T04:08:03;7.22;;;5.45;;
52136;SDS011;38130;49.012;8.368;2022-07-29T04:10:30;7.57;;;5.75;;
52136;SDS011;38130;49.012;8.368;2022-07-29T04:13:00;6.40;;;5.55;;
52136;SDS011;38130;49.012;8.368;2022-07-29T04:15:27;6.07;;;5.28;;
52136;SDS011;38130;49.012;8.368;2022-07-29T04:17:57;7.43;;;5.80;;
52136;SDS011;38130;49.012;8.368;2022-07-29T04:20:24;9.07;;;6.03;;
52136;SDS011;38130;49.012;8.368;2022-07-29T04:22:50;6.88;;;5.63;;
52136;SDS011;38130;49.012;8.368;2022-07-29T04:25:17;9.32;;;6.30;;
52136;SDS011;38130;49.012;8.368;2022-07-29T04:27:43;9.35;;;5.20;;
52136;SDS011;38130;49.012;8.368;2022-07-29T04:30:26;6.47;;;5.88;;
52136;SDS011;38130;49.012;8.368;2022-07-29T04:32:53;8.27;;;5.70;;
52136;SDS011;38130;49.012;8.368;2022-07-29T04:35:19;8.00;;;6.03;;
52136;SDS011;38130;49.012;8.368;2022-07-29T04:37:46;8.13;;;6.13;;
52136;SDS011;38130;49.012;8.368;2022-07-29T04:40:13;8.68;;;6.55;;
52136;SDS011;38130;49.012;8.368;2022-07-29T04:42:40;7.80;;;6.63;;
52136;SDS011;38130;49.012;8.368;2022-07-29T04:45:12;8.75;;;6.75;;
52136;SDS011;38130;49.012;8.368;2022-07-29T04:47:39;13.15;;;6.70;;
52136;SDS011;38130;49.012;8.368;2022-07-29T04:50:07;9.25;;;8.25;;
52136;SDS011;38130;49.012;8.368;2022-07-29T04:52:35;11.93;;;6.90;;
52136;SDS011;38130;49.012;8.368;2022-07-29T04:55:01;7.47;;;6.78;;
52136;SDS011;38130;49.012;8.368;2022-07-29T04:57:29;10.77;;;6.70;;
52136;SDS011;38130;49.012;8.368;2022-07-29T04:59:55;9.20;;;6.13;;
52136;SDS011;38130;49.012;8.368;2022-07-29T05:02:22;7.10;;;6.40;;
52136;SDS011;38130;49.012;8.368;2022-07-29T05:04:48;7.60;;;6.40;;
52136;SDS011;38130;49.012;8.368;2022-07-29T05:07:15;6.90;;;6.20;;
52136;SDS011;38130;49.012;8.368;2022-07-29T05:09:41;13.15;;;6.80;;
52136;SDS011;38130;49.012;8.368;2022-07-29T05:12:08;11.40;;;6.70;;
52136;SDS011;38130;49.012;8.368;2022-07-29T05:14:34;9.10;;;6.63;;
52136;SDS011;38130;49.012;8.368;2022-07-29T05:17:01;10.40;;;6.30;;
52136;SDS011;38130;49.012;8.368;2022-07-29T05:19:27;8.07;;;6.18;;
52136;SDS011;38130;49.012;8.368;2022-07-29T05:21:54;8.75;;;6.22;;
52136;SDS011;38130;49.012;8.368;2022-07-29T05:24:20;10.13;;;7.72;;
52136;SDS011;38130;49.012;8.368;2022-07-29T05:26:47;10.27;;;6.03;;
52136;SDS011;38130;49.012;8.368;2022-07-29T05:29:13;12.77;;;6.45;;
52136;SDS011;38130;49.012;8.368;2022-07-29T05:32:00;6.65;;;6.00;;
52136;SDS011;38130;49.012;8.368;2022-07-29T05:34:26;7.80;;;5.88;;
52136;SDS011;38130;49.012;8.368;2022-07-29T05:36:53;8.75;;;7.18;;
52136;SDS011;38130;49.012;8.368;2022-07-29T05:39:19;11.27;;;5.82;;
52136;SDS011;38130;49.012;8.368;2022-07-29T05:41:46;9.40;;;5.93;;
52136;SDS011;38130;49.012;8.368;2022-07-29T05:44:17;7.47;;;5.80;;
52136;SDS011;38130;49.012;8.368;2022-07-29T05:46:44;10.52;;;6.63;;
52136;SDS011;38130;49.012;8.368;2022-07-29T05:49:10;10.00;;;6.20;;
52136;SDS011;38130;49.012;8.368;2022-07-29T05:51:52;11.30;;;5.82;;
52136;SDS011;38130;49.012;8.368;2022-07-29T05:54:20;7.85;;;5.80;;
52136;SDS011;38130;49.012;8.368;2022-07-29T05:56:47;8.30;;;6.15;;
52136;SDS011;38130;49.012;8.368;2022-07-29T05:59:13;7.18;;;6.07;;
52136;SDS011;38130;49.012;8.368;2022-07-29T06:01:43;8.73;;;5.93;;
52136;SDS011;38130;49.012;8.368;2022-07-29T06:04:10;8.35;;;5.38;;
52136;SDS011;38130;49.012;8.368;2022-07-29T06:06:36;9.05;;;6.22;;
52136;SDS011;38130;49.012;8.368;2022-07-29T06:09:03;10.13;;;6.13;;
52136;SDS011;38130;49.012;8.368;2022-07-29T06:11:38;9.23;;;5.45;;
52136;SDS011;38130;49.012;8.368;2022-07-29T06:14:04;8.73;;;5.90;;
52136;SDS011;38130;49.012;8.368;2022-07-29T06:16:31;5.97;;;5.20;;
52136;SDS011;38130;49.012;8.368;2022-07-29T06:18:57;8.63;;;5.88;;
52136;SDS011;38130;49.012;8.368;2022-07-29T06:21:24;9.80;;;6.13;;
52136;SDS011;38130;49.012;8.368;2022-07-29T06:23:50;10.02;;;6.22;;
52136;SDS011;38130;49.012;8.368;2022-07-29T06:26:17;7.80;;;5.90;;
52136;SDS011;38130;49.012;8.368;2022-07-29T06:28:56;7.50;;;6.03;;
52136;SDS011;38130;49.012;8.368;2022-07-29T06:31:22;11.35;;;6.03;;
52136;SDS011;38130;49.012;8.368;2022-07-29T06:33:49;7.68;;;6.32;;
52136;SDS011;38130;49.012;8.368;2022-07-29T06:36:15;7.85;;;6.88;;
52136;SDS011;38130;49.012;8.368;2022-07-29T06:38:42;7.00;;;6.30;;
52136;SDS011;38130;49.012;8.368;2022-07-29T06:43:43;7.03;;;6.25;;
52136;SDS011;38130;49.012;8.368;2022-07-29T06:46:18;7.72;;;5.88;;
52136;SDS011;38130;49.012;8.368;2022-07-29T06:48:46;8.52;;;6.60;;
52136;SDS011;38130;49.012;8.368;2022-07-29T06:51:13;8.30;;;5.82;;
52136;SDS011;38130;49.012;8.368;2022-07-29T06:53:41;8.15;;;5.13;;
52136;SDS011;38130;49.012;8.368;2022-07-29T06:56:29;9.18;;;5.78;;
52136;SDS011;38130;49.012;8.368;2022-07-29T06:58:56;8.07;;;5.70;;
52136;SDS011;38130;49.012;8.368;2022-07-29T07:01:23;8.25;;;6.35;;
52136;SDS011;38130;49.012;8.368;2022-07-29T07:03:49;10.77;;;6.00;;
52136;SDS011;38130;49.012;8.368;2022-07-29T07:06:16;7.22;;;5.63;;
52136;SDS011;38130;49.012;8.368;2022-07-29T07:08:42;10.98;;;5.63;;
52136;SDS011;38130;49.012;8.368;2022-07-29T07:11:09;8.85;;;6.30;;
52136;SDS011;38130;49.012;8.368;2022-07-29T07:13:36;6.45;;;4.95;;
52136;SDS011;38130;49.012;8.368;2022-07-29T07:16:03;8.95;;;6.13;;
52136;SDS011;38130;49.012;8.368;2022-07-29T07:18:30;5.70;;;5.20;;
52136;SDS011;38130;49.012;8.368;2022-07-29T07:20:57;6.50;;;5.65;;
52136;SDS011;38130;49.012;8.368;2022-07-29T07:23:24;10.45;;;5.43;;
52136;SDS011;38130;49.012;8.368;2022-07-29T07:25:51;7.40;;;5.45;;
52136;SDS011;38130;49.012;8.368;2022-07-29T07:28:17;9.68;;;4.85;;
52136;SDS011;38130;49.012;8.368;2022-07-29T07:30:50;6.75;;;5.32;;
52136;SDS011;38130;49.012;8.368;2022-07-29T07:33:17;8.23;;;5.03;;
52136;SDS011;38130;49.012;8.368;2022-07-29T07:35:43;7.18;;;5.13;;
52136;SDS011;38130;49.012;8.368;2022-07-29T07:38:10;7.07;;;5.32;;
52136;SDS011;38130;49.012;8.368;2022-07-29T07:40:37;5.60;;;5.10;;
52136;SDS011;38130;49.012;8.368;2022-07-29T07:43:03;10.30;;;5.05;;
52136;SDS011;38130;49.012;8.368;2022-07-29T07:45:30;10.20;;;5.65;;
52136;SDS011;38130;49.012;8.368;2022-07-29T07:47:58;5.07;;;4.57;;
52136;SDS011;38130;49.012;8.368;2022-07-29T07:50:25;7.07;;;5.07;;
52136;SDS011;38130;49.012;8.368;2022-07-29T07:52:53;7.90;;;5.13;;
52136;SDS011;38130;49.012;8.368;2022-07-29T07:55:21;6.03;;;4.95;;
52136;SDS011;38130;49.012;8.368;2022-07-29T07:57:47;7.13;;;4.40;;
52136;SDS011;38130;49.012;8.368;2022-07-29T08:00:14;6.18;;;4.70;;
52136;SDS011;38130;49.012;8.368;2022-07-29T08:02:42;6.10;;;4.82;;
52136;SDS011;38130;49.012;8.368;2022-07-29T08:05:09;5.88;;;4.93;;
52136;SDS011;38130;49.012;8.368;2022-07-29T08:07:38;7.10;;;4.55;;
52136;SDS011;38130;49.012;8.368;2022-07-29T08:10:05;6.75;;;4.40;;
52136;SDS011;38130;49.012;8.368;2022-07-29T08:12:31;8.68;;;4.57;;
52136;SDS011;38130;49.012;8.368;2022-07-29T08:14:58;5.85;;;3.95;;
52136;SDS011;38130;49.012;8.368;2022-07-29T08:17:24;7.25;;;3.95;;
52136;SDS011;38130;49.012;8.368;2022-07-29T08:19:52;10.73;;;3.95;;
52136;SDS011;38130;49.012;8.368;2022-07-29T08:22:18;5.75;;;3.80;;
52136;SDS011;38130;49.012;8.368;2022-07-29T08:24:45;9.00;;;3.78;;
52136;SDS011;38130;49.012;8.368;2022-07-29T08:27:22;7.05;;;3.80;;
52136;SDS011;38130;49.012;8.368;2022-07-29T08:30:08;12.52;;;4.00;;
52136;SDS011;38130;49.012;8.368;2022-07-29T08:32:36;5.82;;;3.78;;
52136;SDS011;38130;49.012;8.368;2022-07-29T08:35:20;5.88;;;3.55;;
52136;SDS011;38130;49.012;8.368;2022-07-29T08:37:48;7.53;;;4.10;;
52136;SDS011;38130;49.012;8.368;2022-07-29T08:40:15;6.07;;;3.92;;
52136;SDS011;38130;49.012;8.368;2022-07-29T08:42:41;8.50;;;3.55;;
52136;SDS011;38130;49.012;8.368;2022-07-29T08:45:08;6.20;;;3.72;;
52136;SDS011;38130;49.012;8.368;2022-07-29T08:47:35;6.63;;;3.60;;
52136;SDS011;38130;49.012;8.368;2022-07-29T08:50:06;5.05;;;3.70;;
52136;SDS011;38130;49.012;8.368;2022-07-29T08:52:35;4.28;;;3.38;;
52136;SDS011;38130;49.012;8.368;2022-07-29T08:55:05;6.20;;;3.35;;
52136;SDS011;38130;49.012;8.368;2022-07-29T08:57:32;7.82;;;3.53;;
52136;SDS011;38130;49.012;8.368;2022-07-29T09:00:04;6.30;;;3.72;;
52136;SDS011;38130;49.012;8.368;2022-07-29T09:02:40;6.97;;;3.67;;
52136;SDS011;38130;49.012;8.368;2022-07-29T09:05:13;5.40;;;3.60;;
52136;SDS011;38130;49.012;8.368;2022-07-29T09:07:39;7.05;;;3.70;;
52136;SDS011;38130;49.012;8.368;2022-07-29T09:10:09;4.65;;;3.50;;
52136;SDS011;38130;49.012;8.368;2022-07-29T09:12:36;8.88;;;3.60;;
52136;SDS011;38130;49.012;8.368;2022-07-29T09:15:03;9.38;;;4.13;;
52136;SDS011;38130;49.012;8.368;2022-07-29T09:17:40;5.30;;;3.40;;
52136;SDS011;38130;49.012;8.368;2022-07-29T09:20:13;8.02;;;3.67;;
52136;SDS011;38130;49.012;8.368;2022-07-29T09:22:41;6.75;;;3.55;;
52136;SDS011;38130;49.012;8.368;2022-07-29T09:25:07;11.85;;;4.03;;
52136;SDS011;38130;49.012;8.368;2022-07-29T09:27:34;4.47;;;3.00;;
52136;SDS011;38130;49.012;8.368;2022-07-29T09:30:05;8.70;;;3.95;;
52136;SDS011;38130;49.012;8.368;2022-07-29T09:32:55;5.40;;;3.10;;
52136;SDS011;38130;49.012;8.368;2022-07-29T09:35:29;8.15;;;3.67;;
52136;SDS011;38130;49.012;8.368;2022-07-29T09:37:56;5.35;;;3.15;;
52136;SDS011;38130;49.012;8.368;2022-07-29T09:40:24;7.90;;;3.67;;
52136;SDS011;38130;49.012;8.368;2022-07-29T09:42:52;11.68;;;3.55;;
52136;SDS011;38130;49.012;8.368;2022-07-29T09:45:30;7.40;;;3.75;;
52136;SDS011;38130;49.012;8.368;2022-07-29T09:47:58;3.38;;;3.08;;
52136;SDS011;38130;49.012;8.368;2022-07-29T09:50:35;6.45;;;3.45;;
52136;SDS011;38130;49.012;8.368;2022-07-29T09:53:03;6.18;;;3.22;;
52136;SDS011;38130;49.012;8.368;2022-07-29T09:55:30;6.30;;;3.63;;
52136;SDS011;38130;49.012;8.368;2022-07-29T10:00:53;10.48;;;3.33;;
52136;SDS011;38130;49.012;8.368;2022-07-29T10:03:21;7.30;;;3.67;;
52136;SDS011;38130;49.012;8.368;2022-07-29T10:06:07;8.07;;;3.28;;
52136;SDS011;38130;49.012;8.368;2022-07-29T10:08:35;6.57;;;3.92;;
52136;SDS011;38130;49.012;8.368;2022-07-29T10:11:12;10.10;;;3.53;;
52136;SDS011;38130;49.012;8.368;2022-07-29T10:13:40;6.15;;;3.35;;
52136;SDS011;38130;49.012;8.368;2022-07-29T10:16:08;11.85;;;3.63;;
52136;SDS011;38130;49.012;8.368;2022-07-29T10:18:35;5.95;;;3.03;;
52136;SDS011;38130;49.012;8.368;2022-07-29T10:21:04;5.90;;;3.17;;
52136;SDS011;38130;49.012;8.368;2022-07-29T10:23:31;3.92;;;3.10;;
52136;SDS011;38130;49.012;8.368;2022-07-29T10:26:12;6.63;;;3.10;;
52136;SDS011;38130;49.012;8.368;2022-07-29T10:28:40;7.22;;;3.47;;
52136;SDS011;38130;49.012;8.368;2022-07-29T10:31:08;8.82;;;3.67;;
52136;SDS011;38130;49.012;8.368;2022-07-29T10:33:48;8.13;;;3.70;;
52136;SDS011;38130;49.012;8.368;2022-07-29T10:36:32;3.42;;;2.83;;
52136;SDS011;38130;49.012;8.368;2022-07-29T10:39:17;7.22;;;3.80;;
52136;SDS011;38130;49.012;8.368;2022-07-29T10:42:19;5.50;;;3.30;;
52136;SDS011;38130;49.012;8.368;2022-07-29T10:44:59;7.35;;;3.47;;
52136;SDS011;38130;49.012;8.368;2022-07-29T10:47:29;5.35;;;3.13;;
52136;SDS011;38130;49.012;8.368;2022-07-29T10:50:00;4.63;;;3.40;;
52136;SDS011;38130;49.012;8.368;2022-07-29T10:52:52;5.65;;;3.88;;
52136;SDS011;38130;49.012;8.368;2022-07-29T10:55:54;6.93;;;3.33;;
52136;SDS011;38130;49.012;8.368;2022-07-29T11:00:45;4.25;;;3.70;;
52136;SDS011;38130;49.012;8.368;2022-07-29T11:06:18;5.65;;;2.80;;
52136;SDS011;38130;49.012;8.368;2022-07-29T11:11:45;5.60;;;2.85;;
52136;SDS011;38130;49.012;8.368;2022-07-29T11:14:17;5.57;;;3.05;;
52136;SDS011;38130;49.012;8.368;2022-07-29T11:16:57;6.60;;;3.72;;
52136;SDS011;38130;49.012;8.368;2022-07-29T11:19:26;4.35;;;2.75;;
52136;SDS011;38130;49.012;8.368;2022-07-29T11:22:30;6.95;;;3.25;;
52136;SDS011;38130;49.012;8.368;2022-07-29T11:28:17;4.95;;;2.70;;
52136;SDS011;38130;49.012;8.368;2022-07-29T11:36:16;6.93;;;3.30;;
52136;SDS011;38130;49.012;8.368;2022-07-29T11:38:42;5.35;;;2.95;;
52136;SDS011;38130;49.012;8.368;2022-07-29T11:51:57;3.03;;;2.70;;
52136;SDS011;38130;49.012;8.368;2022-07-29T11:54:31;2.80;;;2.50;;
52136;SDS011;38130;49.012;8.368;2022-07-29T11:57:20;3.67;;;2.97;;
52136;SDS011;38130;49.012;8.368;2022-07-29T11:59:47;6.05;;;3.00;;
52136;SDS011;38130;49.012;8.368;2022-07-29T12:02:14;5.80;;;2.80;;
52136;SDS011;38130;49.012;8.368;2022-07-29T12:05:01;5.65;;;2.60;;
52136;SDS011;38130;49.012;8.368;2022-07-29T12:07:37;4.80;;;2.63;;
52136;SDS011;38130;49.012;8.368;2022-07-29T12:10:06;5.40;;;2.90;;
52136;SDS011;38130;49.012;8.368;2022-07-29T12:12:48;7.60;;;2.88;;
52136;SDS011;38130;49.012;8.368;2022-07-29T12:15:18;4.57;;;2.45;;
52136;SDS011;38130;49.012;8.368;2022-07-29T12:18:10;5.63;;;2.83;;
52136;SDS011;38130;49.012;8.368;2022-07-29T12:20:38;4.47;;;2.97;;
52136;SDS011;38130;49.012;8.368;2022-07-29T12:23:06;5.97;;;3.22;;
52136;SDS011;38130;49.012;8.368;2022-07-29T12:25:35;4.28;;;2.97;;
52136;SDS011;38130;49.012;8.368;2022-07-29T12:28:04;3.08;;;2.42;;
52136;SDS011;38130;49.012;8.368;2022-07-29T12:33:26;4.00;;;2.45;;
52136;SDS011;38130;49.012;8.368;2022-07-29T12:35:58;9.48;;;3.13;;
52136;SDS011;38130;49.012;8.368;2022-07-29T12:38:42;8.70;;;2.63;;
52136;SDS011;38130;49.012;8.368;2022-07-29T12:41:09;4.40;;;2.40;;
52136;SDS011;38130;49.012;8.368;2022-07-29T12:43:36;5.65;;;2.33;;
52136;SDS011;38130;49.012;8.368;2022-07-29T12:46:12;4.80;;;2.40;;
52136;SDS011;38130;49.012;8.368;2022-07-29T12:48:41;5.80;;;2.67;;
52136;SDS011;38130;49.012;8.368;2022-07-29T12:51:10;3.83;;;2.42;;
52136;SDS011;38130;49.012;8.368;2022-07-29T12:53:38;3.67;;;2.05;;
52136;SDS011;38130;49.012;8.368;2022-07-29T12:56:05;7.28;;;2.78;;
52136;SDS011;38130;49.012;8.368;2022-07-29T12:59:10;3.22;;;2.35;;
52136;SDS011;38130;49.012;8.368;2022-07-29T13:01:39;4.97;;;2.80;;
52136;SDS011;38130;49.012;8.368;2022-07-29T13:04:05;8.63;;;2.55;;
52136;SDS011;38130;49.012;8.368;2022-07-29T13:06:33;5.53;;;2.30;;
52136;SDS011;38130;49.012;8.368;2022-07-29T13:09:15;5.35;;;2.25;;
52136;SDS011;38130;49.012;8.368;2022-07-29T13:11:47;4.30;;;2.40;;
52136;SDS011;38130;49.012;8.368;2022-07-29T13:20:07;4.32;;;1.90;;
52136;SDS011;38130;49.012;8.368;2022-07-29T13:22:39;5.03;;;1.90;;
52136;SDS011;38130;49.012;8.368;2022-07-29T13:25:07;5.80;;;2.53;;
52136;SDS011;38130;49.012;8.368;2022-07-29T13:27:36;13.98;;;2.45;;
52136;SDS011;38130;49.012;8.368;2022-07-29T13:30:04;2.75;;;1.83;;
52136;SDS011;38130;49.012;8.368;2022-07-29T13:32:33;5.03;;;2.20;;
52136;SDS011;38130;49.012;8.368;2022-07-29T13:35:04;6.00;;;2.28;;
52136;SDS011;38130;49.012;8.368;2022-07-29T13:37:33;7.82;;;2.10;;
52136;SDS011;38130;49.012;8.368;2022-07-29T13:40:02;7.35;;;2.50;;
52136;SDS011;38130;49.012;8.368;2022-07-29T13:42:29;4.05;;;2.45;;
52136;SDS011;38130;49.012;8.368;2022-07-29T13:44:57;6.68;;;2.20;;
52136;SDS011;38130;49.012;8.368;2022-07-29T13:47:24;5.18;;;2.40;;
52136;SDS011;38130;49.012;8.368;2022-07-29T13:49:58;4.97;;;1.85;;
52136;SDS011;38130;49.012;8.368;2022-07-29T13:52:31;2.90;;;1.85;;
52136;SDS011;38130;49.012;8.368;2022-07-29T13:54:58;6.55;;;1.95;;
52136;SDS011;38130;49.012;8.368;2022-07-29T13:57:25;4.40;;;2.15;;
52136;SDS011;38130;49.012;8.368;2022-07-29T13:59:51;8.70;;;2.28;;
52136;SDS011;38130;49.012;8.368;2022-07-29T14:02:19;5.60;;;2.20;;
52136;SDS011;38130;49.012;8.368;2022-07-29T14:04:51;3.67;;;2.30;;
52136;SDS011;38130;49.012;8.368;2022-07-29T14:07:18;4.35;;;2.10;;
52136;SDS011;38130;49.012;8.368;2022-07-29T14:09:45;3.53;;;1.92;;
52136;SDS011;38130;49.012;8.368;2022-07-29T14:12:11;3.72;;;1.75;;
52136;SDS011;38130;49.012;8.368;2022-07-29T14:14:38;4.38;;;1.85;;
52136;SDS011;38130;49.012;8.368;2022-07-29T14:17:04;7.65;;;2.33;;
52136;SDS011;38130;49.012;8.368;2022-07-29T14:19:33;3.08;;;2.10;;
52136;SDS011;38130;49.012;8.368;2022-07-29T14:22:04;5.68;;;2.00;;
52136;SDS011;38130;49.012;8.368;2022-07-29T14:24:32;5.20;;;2.15;;
52136;SDS011;38130;49.012;8.368;2022-07-29T14:27:02;3.28;;;2.10;;
52136;SDS011;38130;49.012;8.368;2022-07-29T14:29:30;4.28;;;2.25;;
52136;SDS011;38130;49.012;8.368;2022-07-29T14:32:04;7.43;;;2.13;;
52136;SDS011;38130;49.012;8.368;2022-07-29T14:34:32;1.85;;;1.75;;
52136;SDS011;38130;49.012;8.368;2022-07-29T14:36:59;4.60;;;2.30;;
52136;SDS011;38130;49.012;8.368;2022-07-29T14:39:25;4.47;;;2.20;;
52136;SDS011;38130;49.012;8.368;2022-07-29T14:41:57;5.55;;;2.38;;
52136;SDS011;38130;49.012;8.368;2022-07-29T14:44:24;3.30;;;2.17;;
52136;SDS011;38130;49.012;8.368;2022-07-29T14:46:57;5.45;;;1.73;;
52136;SDS011;38130;49.012;8.368;2022-07-29T14:49:26;7.90;;;2.15;;
52136;SDS011;38130;49.012;8.368;2022-07-29T14:51:53;2.80;;;2.10;;
52136;SDS011;38130;49.012;8.368;2022-07-29T14:54:19;7.47;;;2.47;;
52136;SDS011;38130;49.012;8.368;2022-07-29T14:56:46;3.40;;;2.40;;
52136;SDS011;38130;49.012;8.368;2022-07-29T14:59:12;4.18;;;1.83;;
52136;SDS011;38130;49.012;8.368;2022-07-29T15:01:39;4.05;;;2.28;;
52136;SDS011;38130;49.012;8.368;2022-07-29T15:04:09;1.67;;;1.58;;
52136;SDS011;38130;49.012;8.368;2022-07-29T15:06:36;4.15;;;1.70;;
52136;SDS011;38130;49.012;8.368;2022-07-29T15:09:02;3.08;;;2.05;;
52136;SDS011;38130;49.012;8.368;2022-07-29T15:11:29;2.40;;;1.67;;
52136;SDS011;38130;49.012;8.368;2022-07-29T15:14:02;3.92;;;1.80;;
52136;SDS011;38130;49.012;8.368;2022-07-29T15:16:28;4.43;;;1.92;;
52136;SDS011;38130;49.012;8.368;2022-07-29T15:18:55;5.80;;;1.80;;
52136;SDS011;38130;49.012;8.368;2022-07-29T15:21:26;6.15;;;1.90;;
52136;SDS011;38130;49.012;8.368;2022-07-29T15:23:53;3.40;;;2.15;;
52136;SDS011;38130;49.012;8.368;2022-07-29T15:26:19;4.47;;;1.70;;
52136;SDS011;38130;49.012;8.368;2022-07-29T15:28:47;3.13;;;1.85;;
52136;SDS011;38130;49.012;8.368;2022-07-29T15:31:13;3.22;;;1.70;;
52136;SDS011;38130;49.012;8.368;2022-07-29T15:33:40;4.88;;;1.75;;
52136;SDS011;38130;49.012;8.368;2022-07-29T15:36:07;5.03;;;1.83;;
52136;SDS011;38130;49.012;8.368;2022-07-29T15:38:33;4.72;;;2.20;;
52136;SDS011;38130;49.012;8.368;2022-07-29T15:41:06;2.40;;;1.73;;
52136;SDS011;38130;49.012;8.368;2022-07-29T15:43:33;2.42;;;2.00;;
52136;SDS011;38130;49.012;8.368;2022-07-29T15:46:01;3.00;;;1.80;;
52136;SDS011;38130;49.012;8.368;2022-07-29T15:48:46;6.05;;;1.90;;
52136;SDS011;38130;49.012;8.368;2022-07-29T15:51:13;3.92;;;1.67;;
52136;SDS011;38130;49.012;8.368;2022-07-29T15:53:40;4.10;;;1.88;;
52136;SDS011;38130;49.012;8.368;2022-07-29T15:56:06;3.95;;;1.52;;
52136;SDS011;38130;49.012;8.368;2022-07-29T15:58:33;7.53;;;1.85;;
52136;SDS011;38130;49.012;8.368;2022-07-29T16:00:59;4.32;;;1.63;;